Terminal Aerodrome Forecast
Issued by NWS Cleveland, OH

Home | Current Version | Previous Version | Text Only | Print | Product List | Glossary Off
Versions: 1 2 3 4 5 6 7 8 9 10 11 12 13 14 15 16 17 18 19 20 21 22 23 24

000
FTUS41 KCLE 020100 AAA
TAFMFD
TAF AMD
KMFD 020151Z 0202/0224 28005KT 6SM BR BKN050
      TEMPO 0202/0206 6SM BR BKN020
     FM020600 27006KT 6SM BR OVC012
     FM021400 27008KT P6SM SCT012 BKN035
     FM021600 28008KT P6SM SCT035 BKN250=

USA.gov is the U.S. government's official web portal to all federal, state and local government web resources and services.